KAOH/AOH METAR and TAF weather

Enter ICAO airport designator
Station Type Date Time Source
KAOH METAR 2018/12/12 22:53 UTC NOAA

KAOH 122253Z AUTO 18007KT 10SM CLR 03/M02 A2988 RMK AO2 SLP126 T00281017


Station Type Date Time Source
KAOH Decoded METAR 2018/12/12 22:53 UTC NOAA

LIMA ALLEN COUNTY AIRPORT, OH, United States (KAOH) 40-42N 84-01W 296M
Dec 12, 2018 - 05:53 PM EST / 2018.12.12 2253 UTC
Wind: from the S (180 degrees) at 8 MPH (7 KT):0
Visibility: 10 mile(s):0
Sky conditions: clear
Temperature: 37.0 F (2.8 C)
Dew Point: 28.9 F (-1.7 C)
Relative Humidity: 72%
Pressure (altimeter): 29.88 in. Hg (1011 hPa)
ob: KAOH 122253Z AUTO 18007KT 10SM CLR 03/M02 A2988 RMK AO2 SLP126 T00281017
cycle: 23

Station Type Date Time Source
KAOH TAF UTC NOAA

Error!


Example: see airport list